sensor_id;sensor_type;location;lat;lon;timestamp;P1;durP1;ratioP1;P2;durP2;ratioP2
40807;SDS011;26523;52.504;13.498;2023-02-28T00:00:16;2.50;;;1.30;;
40807;SDS011;26523;52.504;13.498;2023-02-28T00:02:43;5.47;;;1.48;;
40807;SDS011;26523;52.504;13.498;2023-02-28T00:05:11;3.63;;;1.10;;
40807;SDS011;26523;52.504;13.498;2023-02-28T00:07:38;10.57;;;1.65;;
40807;SDS011;26523;52.504;13.498;2023-02-28T00:10:04;3.25;;;1.67;;
40807;SDS011;26523;52.504;13.498;2023-02-28T00:12:32;3.75;;;1.20;;
40807;SDS011;26523;52.504;13.498;2023-02-28T00:14:59;5.47;;;2.08;;
40807;SDS011;26523;52.504;13.498;2023-02-28T00:17:25;3.55;;;1.45;;
40807;SDS011;26523;52.504;13.498;2023-02-28T00:19:50;11.38;;;2.35;;
40807;SDS011;26523;52.504;13.498;2023-02-28T00:22:17;4.82;;;1.58;;
40807;SDS011;26523;52.504;13.498;2023-02-28T00:24:44;3.05;;;1.60;;
40807;SDS011;26523;52.504;13.498;2023-02-28T00:27:10;5.50;;;1.33;;
40807;SDS011;26523;52.504;13.498;2023-02-28T00:29:36;4.53;;;1.40;;
40807;SDS011;26523;52.504;13.498;2023-02-28T00:32:02;3.70;;;1.40;;
40807;SDS011;26523;52.504;13.498;2023-02-28T00:34:29;2.95;;;1.40;;
40807;SDS011;26523;52.504;13.498;2023-02-28T00:36:55;4.10;;;1.55;;
40807;SDS011;26523;52.504;13.498;2023-02-28T00:39:20;4.40;;;1.40;;
40807;SDS011;26523;52.504;13.498;2023-02-28T00:41:46;3.10;;;1.67;;
40807;SDS011;26523;52.504;13.498;2023-02-28T00:44:12;4.72;;;1.77;;
40807;SDS011;26523;52.504;13.498;2023-02-28T00:46:38;2.45;;;1.35;;
40807;SDS011;26523;52.504;13.498;2023-02-28T00:49:03;4.53;;;1.85;;
40807;SDS011;26523;52.504;13.498;2023-02-28T00:51:29;3.42;;;1.27;;
40807;SDS011;26523;52.504;13.498;2023-02-28T00:53:55;4.60;;;1.60;;
40807;SDS011;26523;52.504;13.498;2023-02-28T00:56:20;4.30;;;1.55;;
40807;SDS011;26523;52.504;13.498;2023-02-28T00:58:46;2.83;;;1.35;;
40807;SDS011;26523;52.504;13.498;2023-02-28T01:01:11;5.90;;;2.00;;
40807;SDS011;26523;52.504;13.498;2023-02-28T01:03:37;2.33;;;1.00;;
40807;SDS011;26523;52.504;13.498;2023-02-28T01:06:03;3.97;;;1.63;;
40807;SDS011;26523;52.504;13.498;2023-02-28T01:08:29;4.38;;;1.70;;
40807;SDS011;26523;52.504;13.498;2023-02-28T01:10:55;3.67;;;1.30;;
40807;SDS011;26523;52.504;13.498;2023-02-28T01:13:21;3.60;;;1.33;;
40807;SDS011;26523;52.504;13.498;2023-02-28T01:15:49;3.20;;;2.00;;
40807;SDS011;26523;52.504;13.498;2023-02-28T01:18:16;5.07;;;1.90;;
40807;SDS011;26523;52.504;13.498;2023-02-28T01:20:43;3.25;;;1.60;;
40807;SDS011;26523;52.504;13.498;2023-02-28T01:23:09;3.35;;;1.73;;
40807;SDS011;26523;52.504;13.498;2023-02-28T01:25:35;5.20;;;1.55;;
40807;SDS011;26523;52.504;13.498;2023-02-28T01:28:01;2.53;;;1.65;;
40807;SDS011;26523;52.504;13.498;2023-02-28T01:30:27;5.18;;;1.75;;
40807;SDS011;26523;52.504;13.498;2023-02-28T01:32:53;3.55;;;1.45;;
40807;SDS011;26523;52.504;13.498;2023-02-28T01:35:19;4.97;;;1.75;;
40807;SDS011;26523;52.504;13.498;2023-02-28T01:37:45;3.70;;;1.38;;
40807;SDS011;26523;52.504;13.498;2023-02-28T01:40:11;5.95;;;1.90;;
40807;SDS011;26523;52.504;13.498;2023-02-28T01:42:37;4.25;;;2.08;;
40807;SDS011;26523;52.504;13.498;2023-02-28T01:45:06;7.85;;;2.13;;
40807;SDS011;26523;52.504;13.498;2023-02-28T01:47:53;6.47;;;2.15;;
40807;SDS011;26523;52.504;13.498;2023-02-28T01:50:26;5.38;;;1.88;;
40807;SDS011;26523;52.504;13.498;2023-02-28T01:52:55;8.20;;;1.95;;
40807;SDS011;26523;52.504;13.498;2023-02-28T01:55:25;3.25;;;1.50;;
40807;SDS011;26523;52.504;13.498;2023-02-28T01:57:55;3.60;;;1.75;;
40807;SDS011;26523;52.504;13.498;2023-02-28T02:00:23;5.32;;;1.55;;
40807;SDS011;26523;52.504;13.498;2023-02-28T02:02:54;3.08;;;1.75;;
40807;SDS011;26523;52.504;13.498;2023-02-28T02:05:26;12.63;;;2.10;;
40807;SDS011;26523;52.504;13.498;2023-02-28T02:07:56;6.00;;;2.22;;
40807;SDS011;26523;52.504;13.498;2023-02-28T02:18:54;3.92;;;1.98;;
40807;SDS011;26523;52.504;13.498;2023-02-28T02:27:27;7.10;;;2.28;;
40807;SDS011;26523;52.504;13.498;2023-02-28T02:35:47;4.57;;;2.13;;
40807;SDS011;26523;52.504;13.498;2023-02-28T02:41:19;4.80;;;1.70;;
40807;SDS011;26523;52.504;13.498;2023-02-28T02:44:01;5.07;;;2.08;;
40807;SDS011;26523;52.504;13.498;2023-02-28T02:46:35;5.35;;;2.00;;
40807;SDS011;26523;52.504;13.498;2023-02-28T02:49:08;3.00;;;2.05;;
40807;SDS011;26523;52.504;13.498;2023-02-28T02:51:37;3.10;;;1.90;;
40807;SDS011;26523;52.504;13.498;2023-02-28T02:54:08;8.05;;;2.17;;
40807;SDS011;26523;52.504;13.498;2023-02-28T02:56:40;4.38;;;1.52;;
40807;SDS011;26523;52.504;13.498;2023-02-28T02:59:09;7.68;;;2.38;;
40807;SDS011;26523;52.504;13.498;2023-02-28T03:01:37;10.32;;;1.85;;
40807;SDS011;26523;52.504;13.498;2023-02-28T03:04:07;6.95;;;2.20;;
40807;SDS011;26523;52.504;13.498;2023-02-28T03:06:39;4.07;;;2.38;;
40807;SDS011;26523;52.504;13.498;2023-02-28T03:09:04;2.85;;;1.63;;
40807;SDS011;26523;52.504;13.498;2023-02-28T03:11:30;15.10;;;2.25;;
40807;SDS011;26523;52.504;13.498;2023-02-28T03:20:05;3.72;;;2.35;;
40807;SDS011;26523;52.504;13.498;2023-02-28T03:28:15;2.83;;;1.48;;
40807;SDS011;26523;52.504;13.498;2023-02-28T03:30:58;5.43;;;2.47;;
40807;SDS011;26523;52.504;13.498;2023-02-28T03:33:32;5.00;;;2.22;;
40807;SDS011;26523;52.504;13.498;2023-02-28T03:36:07;4.03;;;1.83;;
40807;SDS011;26523;52.504;13.498;2023-02-28T03:41:38;9.88;;;2.38;;
40807;SDS011;26523;52.504;13.498;2023-02-28T03:44:34;4.88;;;2.45;;
40807;SDS011;26523;52.504;13.498;2023-02-28T03:47:08;7.40;;;1.85;;
40807;SDS011;26523;52.504;13.498;2023-02-28T03:49:42;10.60;;;2.65;;
40807;SDS011;26523;52.504;13.498;2023-02-28T03:52:13;4.30;;;2.17;;
40807;SDS011;26523;52.504;13.498;2023-02-28T03:54:50;7.18;;;2.95;;
40807;SDS011;26523;52.504;13.498;2023-02-28T03:57:38;5.18;;;2.25;;
40807;SDS011;26523;52.504;13.498;2023-02-28T04:00:28;6.43;;;2.25;;
40807;SDS011;26523;52.504;13.498;2023-02-28T04:03:03;12.32;;;2.67;;
40807;SDS011;26523;52.504;13.498;2023-02-28T04:05:29;4.88;;;2.70;;
40807;SDS011;26523;52.504;13.498;2023-02-28T04:08:06;7.13;;;3.05;;
40807;SDS011;26523;52.504;13.498;2023-02-28T04:10:32;4.88;;;2.45;;
40807;SDS011;26523;52.504;13.498;2023-02-28T04:12:58;5.85;;;2.88;;
40807;SDS011;26523;52.504;13.498;2023-02-28T04:15:24;7.15;;;3.45;;
40807;SDS011;26523;52.504;13.498;2023-02-28T04:17:52;12.95;;;2.72;;
40807;SDS011;26523;52.504;13.498;2023-02-28T04:20:17;6.57;;;2.90;;
40807;SDS011;26523;52.504;13.498;2023-02-28T04:22:43;6.47;;;3.08;;
40807;SDS011;26523;52.504;13.498;2023-02-28T04:25:09;5.10;;;2.95;;
40807;SDS011;26523;52.504;13.498;2023-02-28T04:27:35;11.75;;;3.10;;
40807;SDS011;26523;52.504;13.498;2023-02-28T04:30:00;6.45;;;2.50;;
40807;SDS011;26523;52.504;13.498;2023-02-28T04:32:26;3.70;;;1.92;;
40807;SDS011;26523;52.504;13.498;2023-02-28T04:34:52;6.43;;;1.98;;
40807;SDS011;26523;52.504;13.498;2023-02-28T04:37:17;4.82;;;2.05;;
40807;SDS011;26523;52.504;13.498;2023-02-28T04:39:43;7.97;;;2.95;;
40807;SDS011;26523;52.504;13.498;2023-02-28T04:42:09;6.43;;;2.67;;
40807;SDS011;26523;52.504;13.498;2023-02-28T04:44:36;3.10;;;1.70;;
40807;SDS011;26523;52.504;13.498;2023-02-28T04:47:01;7.32;;;3.00;;
40807;SDS011;26523;52.504;13.498;2023-02-28T04:49:27;10.20;;;2.65;;
40807;SDS011;26523;52.504;13.498;2023-02-28T04:51:52;7.55;;;3.55;;
40807;SDS011;26523;52.504;13.498;2023-02-28T04:54:18;5.18;;;2.28;;
40807;SDS011;26523;52.504;13.498;2023-02-28T04:56:44;2.95;;;1.35;;
40807;SDS011;26523;52.504;13.498;2023-02-28T04:59:10;6.00;;;2.40;;
40807;SDS011;26523;52.504;13.498;2023-02-28T05:01:35;3.95;;;2.22;;
40807;SDS011;26523;52.504;13.498;2023-02-28T05:04:02;12.93;;;3.10;;
40807;SDS011;26523;52.504;13.498;2023-02-28T05:06:29;3.90;;;2.25;;
40807;SDS011;26523;52.504;13.498;2023-02-28T05:08:56;10.70;;;2.63;;
40807;SDS011;26523;52.504;13.498;2023-02-28T05:13:52;8.20;;;3.15;;
40807;SDS011;26523;52.504;13.498;2023-02-28T05:16:19;7.30;;;2.95;;
40807;SDS011;26523;52.504;13.498;2023-02-28T05:18:45;5.10;;;2.33;;
40807;SDS011;26523;52.504;13.498;2023-02-28T05:21:54;9.15;;;2.78;;
40807;SDS011;26523;52.504;13.498;2023-02-28T05:24:02;6.55;;;2.63;;
40807;SDS011;26523;52.504;13.498;2023-02-28T05:26:30;2.55;;;1.75;;
40807;SDS011;26523;52.504;13.498;2023-02-28T05:28:56;4.65;;;2.53;;
40807;SDS011;26523;52.504;13.498;2023-02-28T05:31:22;9.63;;;3.13;;
40807;SDS011;26523;52.504;13.498;2023-02-28T05:33:47;4.45;;;1.75;;
40807;SDS011;26523;52.504;13.498;2023-02-28T05:36:13;8.20;;;2.47;;
40807;SDS011;26523;52.504;13.498;2023-02-28T05:38:39;5.63;;;2.90;;
40807;SDS011;26523;52.504;13.498;2023-02-28T05:41:08;6.38;;;2.15;;
40807;SDS011;26523;52.504;13.498;2023-02-28T05:43:35;5.35;;;2.50;;
40807;SDS011;26523;52.504;13.498;2023-02-28T05:46:05;8.77;;;3.90;;
40807;SDS011;26523;52.504;13.498;2023-02-28T05:48:32;5.95;;;3.08;;
40807;SDS011;26523;52.504;13.498;2023-02-28T05:50:58;7.18;;;3.25;;
40807;SDS011;26523;52.504;13.498;2023-02-28T05:53:24;7.60;;;3.28;;
40807;SDS011;26523;52.504;13.498;2023-02-28T05:55:51;7.43;;;2.88;;
40807;SDS011;26523;52.504;13.498;2023-02-28T05:58:17;5.07;;;2.50;;
40807;SDS011;26523;52.504;13.498;2023-02-28T06:00:42;6.55;;;2.40;;
40807;SDS011;26523;52.504;13.498;2023-02-28T06:03:08;10.07;;;3.28;;
40807;SDS011;26523;52.504;13.498;2023-02-28T06:05:33;5.65;;;3.15;;
40807;SDS011;26523;52.504;13.498;2023-02-28T06:07:59;8.07;;;2.97;;
40807;SDS011;26523;52.504;13.498;2023-02-28T06:10:24;6.70;;;3.13;;
40807;SDS011;26523;52.504;13.498;2023-02-28T06:12:50;5.70;;;2.63;;
40807;SDS011;26523;52.504;13.498;2023-02-28T06:15:16;7.40;;;2.55;;
40807;SDS011;26523;52.504;13.498;2023-02-28T06:17:42;5.43;;;2.50;;
40807;SDS011;26523;52.504;13.498;2023-02-28T06:20:08;4.80;;;3.35;;
40807;SDS011;26523;52.504;13.498;2023-02-28T06:22:37;15.65;;;2.25;;
40807;SDS011;26523;52.504;13.498;2023-02-28T06:25:04;9.43;;;3.50;;
40807;SDS011;26523;52.504;13.498;2023-02-28T06:27:31;7.95;;;2.90;;
40807;SDS011;26523;52.504;13.498;2023-02-28T06:29:57;9.90;;;3.92;;
40807;SDS011;26523;52.504;13.498;2023-02-28T06:32:23;8.68;;;4.22;;
40807;SDS011;26523;52.504;13.498;2023-02-28T06:34:48;6.20;;;2.75;;
40807;SDS011;26523;52.504;13.498;2023-02-28T06:37:15;7.70;;;2.72;;
40807;SDS011;26523;52.504;13.498;2023-02-28T06:39:41;11.15;;;3.15;;
40807;SDS011;26523;52.504;13.498;2023-02-28T06:42:07;10.13;;;3.50;;
40807;SDS011;26523;52.504;13.498;2023-02-28T06:44:33;7.72;;;2.88;;
40807;SDS011;26523;52.504;13.498;2023-02-28T06:47:02;10.13;;;3.28;;
40807;SDS011;26523;52.504;13.498;2023-02-28T06:49:30;5.53;;;2.55;;
40807;SDS011;26523;52.504;13.498;2023-02-28T06:51:57;5.18;;;3.30;;
40807;SDS011;26523;52.504;13.498;2023-02-28T06:54:23;5.50;;;3.13;;
40807;SDS011;26523;52.504;13.498;2023-02-28T06:56:48;9.65;;;2.75;;
40807;SDS011;26523;52.504;13.498;2023-02-28T06:59:14;12.75;;;3.00;;
40807;SDS011;26523;52.504;13.498;2023-02-28T07:01:41;4.53;;;2.60;;
40807;SDS011;26523;52.504;13.498;2023-02-28T07:04:06;10.73;;;3.53;;
40807;SDS011;26523;52.504;13.498;2023-02-28T07:06:32;6.25;;;2.90;;
40807;SDS011;26523;52.504;13.498;2023-02-28T07:08:58;6.60;;;2.70;;
40807;SDS011;26523;52.504;13.498;2023-02-28T07:11:24;15.13;;;4.47;;
40807;SDS011;26523;52.504;13.498;2023-02-28T07:13:52;6.93;;;3.38;;
40807;SDS011;26523;52.504;13.498;2023-02-28T07:16:19;15.45;;;3.15;;
40807;SDS011;26523;52.504;13.498;2023-02-28T07:18:45;15.75;;;3.50;;
40807;SDS011;26523;52.504;13.498;2023-02-28T07:21:10;4.82;;;2.58;;
40807;SDS011;26523;52.504;13.498;2023-02-28T07:23:37;7.60;;;4.05;;
40807;SDS011;26523;52.504;13.498;2023-02-28T07:26:04;7.97;;;3.22;;
40807;SDS011;26523;52.504;13.498;2023-02-28T07:28:30;6.13;;;2.70;;
40807;SDS011;26523;52.504;13.498;2023-02-28T07:30:56;7.75;;;2.80;;
40807;SDS011;26523;52.504;13.498;2023-02-28T07:33:21;11.07;;;2.75;;
40807;SDS011;26523;52.504;13.498;2023-02-28T07:35:48;9.85;;;3.88;;
40807;SDS011;26523;52.504;13.498;2023-02-28T07:38:14;6.15;;;3.38;;
40807;SDS011;26523;52.504;13.498;2023-02-28T07:40:40;8.65;;;2.85;;
40807;SDS011;26523;52.504;13.498;2023-02-28T07:43:06;6.88;;;3.05;;
40807;SDS011;26523;52.504;13.498;2023-02-28T07:45:32;16.27;;;3.78;;
40807;SDS011;26523;52.504;13.498;2023-02-28T07:47:59;7.30;;;2.40;;
40807;SDS011;26523;52.504;13.498;2023-02-28T07:50:26;7.60;;;3.20;;
40807;SDS011;26523;52.504;13.498;2023-02-28T07:52:55;4.82;;;3.28;;
40807;SDS011;26523;52.504;13.498;2023-02-28T07:55:22;6.13;;;3.10;;
40807;SDS011;26523;52.504;13.498;2023-02-28T07:57:49;5.25;;;2.70;;
40807;SDS011;26523;52.504;13.498;2023-02-28T08:00:15;4.72;;;1.45;;
40807;SDS011;26523;52.504;13.498;2023-02-28T08:02:40;6.00;;;2.33;;
40807;SDS011;26523;52.504;13.498;2023-02-28T08:05:06;8.10;;;2.25;;
40807;SDS011;26523;52.504;13.498;2023-02-28T08:07:32;6.35;;;1.42;;
40807;SDS011;26523;52.504;13.498;2023-02-28T08:09:58;4.15;;;2.15;;
40807;SDS011;26523;52.504;13.498;2023-02-28T08:12:24;4.47;;;2.17;;
40807;SDS011;26523;52.504;13.498;2023-02-28T08:14:50;4.50;;;1.75;;
40807;SDS011;26523;52.504;13.498;2023-02-28T08:17:16;4.40;;;1.70;;
40807;SDS011;26523;52.504;13.498;2023-02-28T08:19:42;4.22;;;1.38;;
40807;SDS011;26523;52.504;13.498;2023-02-28T08:22:10;5.22;;;2.88;;
40807;SDS011;26523;52.504;13.498;2023-02-28T08:24:35;4.03;;;1.40;;
40807;SDS011;26523;52.504;13.498;2023-02-28T08:27:01;7.10;;;2.00;;
40807;SDS011;26523;52.504;13.498;2023-02-28T08:29:26;2.97;;;1.80;;
40807;SDS011;26523;52.504;13.498;2023-02-28T08:31:52;5.10;;;1.80;;
40807;SDS011;26523;52.504;13.498;2023-02-28T08:34:18;3.80;;;1.77;;
40807;SDS011;26523;52.504;13.498;2023-02-28T08:36:43;5.88;;;2.17;;
40807;SDS011;26523;52.504;13.498;2023-02-28T08:39:12;2.17;;;1.08;;
40807;SDS011;26523;52.504;13.498;2023-02-28T08:41:38;4.75;;;1.60;;
40807;SDS011;26523;52.504;13.498;2023-02-28T08:44:03;1.98;;;0.88;;
40807;SDS011;26523;52.504;13.498;2023-02-28T08:46:29;3.67;;;1.40;;
40807;SDS011;26523;52.504;13.498;2023-02-28T08:48:55;5.65;;;2.20;;
40807;SDS011;26523;52.504;13.498;2023-02-28T08:51:24;7.05;;;1.70;;
40807;SDS011;26523;52.504;13.498;2023-02-28T08:53:53;5.28;;;1.63;;
40807;SDS011;26523;52.504;13.498;2023-02-28T08:56:25;3.80;;;1.40;;
40807;SDS011;26523;52.504;13.498;2023-02-28T08:58:51;4.65;;;1.85;;
40807;SDS011;26523;52.504;13.498;2023-02-28T09:01:21;1.70;;;0.95;;
40807;SDS011;26523;52.504;13.498;2023-02-28T09:03:49;2.47;;;1.38;;
40807;SDS011;26523;52.504;13.498;2023-02-28T09:06:16;4.85;;;2.35;;
40807;SDS011;26523;52.504;13.498;2023-02-28T09:08:43;3.75;;;1.20;;
40807;SDS011;26523;52.504;13.498;2023-02-28T09:11:10;4.25;;;1.25;;
40807;SDS011;26523;52.504;13.498;2023-02-28T09:13:36;4.93;;;1.60;;
40807;SDS011;26523;52.504;13.498;2023-02-28T09:16:03;4.20;;;1.75;;
40807;SDS011;26523;52.504;13.498;2023-02-28T09:18:30;4.75;;;1.52;;
40807;SDS011;26523;52.504;13.498;2023-02-28T09:20:56;6.35;;;1.52;;
40807;SDS011;26523;52.504;13.498;2023-02-28T09:23:22;4.45;;;1.25;;
40807;SDS011;26523;52.504;13.498;2023-02-28T09:25:53;2.65;;;1.15;;
40807;SDS011;26523;52.504;13.498;2023-02-28T09:28:20;4.25;;;1.88;;
40807;SDS011;26523;52.504;13.498;2023-02-28T09:30:50;9.30;;;1.60;;
40807;SDS011;26523;52.504;13.498;2023-02-28T09:33:18;4.45;;;1.30;;
40807;SDS011;26523;52.504;13.498;2023-02-28T09:35:46;7.65;;;1.85;;
40807;SDS011;26523;52.504;13.498;2023-02-28T09:38:12;2.17;;;1.30;;
40807;SDS011;26523;52.504;13.498;2023-02-28T09:43:10;4.88;;;1.25;;
40807;SDS011;26523;52.504;13.498;2023-02-28T09:45:39;2.65;;;1.20;;
40807;SDS011;26523;52.504;13.498;2023-02-28T09:48:12;4.38;;;1.38;;
40807;SDS011;26523;52.504;13.498;2023-02-28T09:51:03;1.77;;;0.98;;
40807;SDS011;26523;52.504;13.498;2023-02-28T09:53:36;3.42;;;1.27;;
40807;SDS011;26523;52.504;13.498;2023-02-28T09:56:05;5.20;;;1.23;;
40807;SDS011;26523;52.504;13.498;2023-02-28T10:01:17;1.35;;;0.80;;
40807;SDS011;26523;52.504;13.498;2023-02-28T10:03:56;2.20;;;0.85;;
40807;SDS011;26523;52.504;13.498;2023-02-28T10:09:18;1.98;;;0.93;;
40807;SDS011;26523;52.504;13.498;2023-02-28T10:11:57;2.08;;;1.02;;
40807;SDS011;26523;52.504;13.498;2023-02-28T10:14:29;2.15;;;1.13;;
40807;SDS011;26523;52.504;13.498;2023-02-28T10:16:59;4.93;;;1.27;;
40807;SDS011;26523;52.504;13.498;2023-02-28T10:21:59;4.00;;;1.15;;
40807;SDS011;26523;52.504;13.498;2023-02-28T10:30:03;0.85;;;0.65;;
40807;SDS011;26523;52.504;13.498;2023-02-28T10:32:31;2.67;;;1.00;;
40807;SDS011;26523;52.504;13.498;2023-02-28T10:35:00;6.00;;;1.25;;
40807;SDS011;26523;52.504;13.498;2023-02-28T10:37:27;3.15;;;0.93;;
40807;SDS011;26523;52.504;13.498;2023-02-28T10:39:53;2.88;;;1.20;;
40807;SDS011;26523;52.504;13.498;2023-02-28T10:42:20;1.38;;;0.98;;
40807;SDS011;26523;52.504;13.498;2023-02-28T10:47:35;4.07;;;1.48;;
40807;SDS011;26523;52.504;13.498;2023-02-28T10:52:55;2.33;;;1.13;;
40807;SDS011;26523;52.504;13.498;2023-02-28T10:56:14;4.32;;;1.80;;
40807;SDS011;26523;52.504;13.498;2023-02-28T10:58:51;4.05;;;1.40;;
40807;SDS011;26523;52.504;13.498;2023-02-28T11:04:00;2.22;;;1.33;;
40807;SDS011;26523;52.504;13.498;2023-02-28T11:06:30;6.47;;;1.50;;
40807;SDS011;26523;52.504;13.498;2023-02-28T11:08:58;3.47;;;1.38;;
40807;SDS011;26523;52.504;13.498;2023-02-28T11:11:39;5.35;;;1.70;;
40807;SDS011;26523;52.504;13.498;2023-02-28T11:14:28;1.83;;;1.20;;
40807;SDS011;26523;52.504;13.498;2023-02-28T11:17:01;2.05;;;1.00;;
40807;SDS011;26523;52.504;13.498;2023-02-28T11:19:39;4.78;;;1.50;;
40807;SDS011;26523;52.504;13.498;2023-02-28T11:22:10;3.17;;;1.17;;
40807;SDS011;26523;52.504;13.498;2023-02-28T11:24:43;3.80;;;1.50;;
40807;SDS011;26523;52.504;13.498;2023-02-28T11:27:24;4.60;;;1.80;;
40807;SDS011;26523;52.504;13.498;2023-02-28T11:29:59;4.30;;;1.35;;
40807;SDS011;26523;52.504;13.498;2023-02-28T11:32:26;5.85;;;2.63;;
40807;SDS011;26523;52.504;13.498;2023-02-28T11:35:02;2.38;;;1.02;;
40807;SDS011;26523;52.504;13.498;2023-02-28T11:37:34;2.47;;;0.98;;
40807;SDS011;26523;52.504;13.498;2023-02-28T11:40:00;5.13;;;1.52;;
40807;SDS011;26523;52.504;13.498;2023-02-28T11:42:41;3.55;;;1.60;;
40807;SDS011;26523;52.504;13.498;2023-02-28T11:45:44;4.32;;;1.15;;
40807;SDS011;26523;52.504;13.498;2023-02-28T11:48:27;4.82;;;1.45;;
40807;SDS011;26523;52.504;13.498;2023-02-28T11:59:34;3.47;;;1.50;;
40807;SDS011;26523;52.504;13.498;2023-02-28T12:05:08;4.85;;;2.05;;
40807;SDS011;26523;52.504;13.498;2023-02-28T12:07:58;3.00;;;1.35;;
40807;SDS011;26523;52.504;13.498;2023-02-28T12:10:29;5.55;;;1.52;;
40807;SDS011;26523;52.504;13.498;2023-02-28T12:21:20;1.83;;;1.08;;
40807;SDS011;26523;52.504;13.498;2023-02-28T12:26:47;2.42;;;1.20;;
40807;SDS011;26523;52.504;13.498;2023-02-28T12:29:22;2.13;;;1.08;;
40807;SDS011;26523;52.504;13.498;2023-02-28T12:31:55;3.10;;;1.23;;
40807;SDS011;26523;52.504;13.498;2023-02-28T12:34:36;3.80;;;1.60;;
40807;SDS011;26523;52.504;13.498;2023-02-28T12:37:09;3.43;;;1.27;;
40807;SDS011;26523;52.504;13.498;2023-02-28T12:39:46;1.23;;;0.90;;
40807;SDS011;26523;52.504;13.498;2023-02-28T12:42:26;2.75;;;1.13;;
40807;SDS011;26523;52.504;13.498;2023-02-28T12:44:59;4.90;;;1.20;;
40807;SDS011;26523;52.504;13.498;2023-02-28T12:47:27;6.97;;;1.45;;
40807;SDS011;26523;52.504;13.498;2023-02-28T12:50:03;2.80;;;1.05;;
40807;SDS011;26523;52.504;13.498;2023-02-28T12:52:54;2.33;;;1.23;;
40807;SDS011;26523;52.504;13.498;2023-02-28T12:55:27;2.85;;;1.38;;
40807;SDS011;26523;52.504;13.498;2023-02-28T12:58:10;3.50;;;1.48;;
40807;SDS011;26523;52.504;13.498;2023-02-28T13:06:20;5.72;;;1.60;;
40807;SDS011;26523;52.504;13.498;2023-02-28T13:09:11;7.68;;;1.10;;
40807;SDS011;26523;52.504;13.498;2023-02-28T13:20:18;3.92;;;1.40;;
40807;SDS011;26523;52.504;13.498;2023-02-28T13:22:19;7.65;;;1.80;;
40807;SDS011;26523;52.504;13.498;2023-02-28T13:25:04;5.40;;;1.20;;
40807;SDS011;26523;52.504;13.498;2023-02-28T13:28:10;2.65;;;1.83;;
40807;SDS011;26523;52.504;13.498;2023-02-28T13:33:36;4.63;;;1.60;;
40807;SDS011;26523;52.504;13.498;2023-02-28T13:57:59;4.78;;;1.42;;
40807;SDS011;26523;52.504;13.498;2023-02-28T14:00:48;3.83;;;1.20;;
40807;SDS011;26523;52.504;13.498;2023-02-28T14:02:57;4.22;;;1.70;;
40807;SDS011;26523;52.504;13.498;2023-02-28T14:05:33;3.10;;;1.38;;
40807;SDS011;26523;52.504;13.498;2023-02-28T14:08:04;4.90;;;1.25;;
40807;SDS011;26523;52.504;13.498;2023-02-28T14:10:42;3.72;;;1.30;;
40807;SDS011;26523;52.504;13.498;2023-02-28T14:13:36;5.57;;;1.83;;
40807;SDS011;26523;52.504;13.498;2023-02-28T14:16:13;6.72;;;1.70;;
40807;SDS011;26523;52.504;13.498;2023-02-28T14:18:47;10.00;;;3.60;;
40807;SDS011;26523;52.504;13.498;2023-02-28T14:21:31;3.25;;;1.75;;
40807;SDS011;26523;52.504;13.498;2023-02-28T14:37:52;3.47;;;1.58;;
40807;SDS011;26523;52.504;13.498;2023-02-28T14:40:22;4.90;;;1.95;;
40807;SDS011;26523;52.504;13.498;2023-02-28T14:43:03;3.47;;;1.67;;
40807;SDS011;26523;52.504;13.498;2023-02-28T14:45:31;3.95;;;1.48;;
40807;SDS011;26523;52.504;13.498;2023-02-28T14:47:59;3.75;;;1.15;;
40807;SDS011;26523;52.504;13.498;2023-02-28T14:50:30;5.45;;;1.80;;
40807;SDS011;26523;52.504;13.498;2023-02-28T14:53:00;4.68;;;1.80;;
40807;SDS011;26523;52.504;13.498;2023-02-28T14:55:31;2.85;;;1.33;;
40807;SDS011;26523;52.504;13.498;2023-02-28T14:58:00;4.53;;;1.50;;
40807;SDS011;26523;52.504;13.498;2023-02-28T15:00:35;3.35;;;1.60;;
40807;SDS011;26523;52.504;13.498;2023-02-28T15:03:21;3.72;;;1.30;;
40807;SDS011;26523;52.504;13.498;2023-02-28T15:05:53;5.30;;;1.63;;
40807;SDS011;26523;52.504;13.498;2023-02-28T15:13:20;2.33;;;1.35;;
40807;SDS011;26523;52.504;13.498;2023-02-28T15:15:58;3.70;;;1.27;;
40807;SDS011;26523;52.504;13.498;2023-02-28T15:21:17;5.20;;;1.65;;
40807;SDS011;26523;52.504;13.498;2023-02-28T15:23:53;6.30;;;2.30;;
40807;SDS011;26523;52.504;13.498;2023-02-28T15:26:41;4.00;;;1.17;;
40807;SDS011;26523;52.504;13.498;2023-02-28T15:29:12;5.25;;;1.55;;
40807;SDS011;26523;52.504;13.498;2023-02-28T15:31:45;3.63;;;1.55;;
40807;SDS011;26523;52.504;13.498;2023-02-28T15:34:21;3.47;;;2.03;;
40807;SDS011;26523;52.504;13.498;2023-02-28T15:36:51;12.73;;;1.40;;
40807;SDS011;26523;52.504;13.498;2023-02-28T15:39:27;4.82;;;1.40;;
40807;SDS011;26523;52.504;13.498;2023-02-28T15:42:09;3.03;;;1.30;;
40807;SDS011;26523;52.504;13.498;2023-02-28T15:44:36;2.95;;;1.35;;
40807;SDS011;26523;52.504;13.498;2023-02-28T15:47:03;6.43;;;1.92;;
40807;SDS011;26523;52.504;13.498;2023-02-28T15:49:40;4.47;;;1.40;;
40807;SDS011;26523;52.504;13.498;2023-02-28T15:52:13;3.60;;;1.10;;
40807;SDS011;26523;52.504;13.498;2023-02-28T15:54:44;4.20;;;1.42;;
40807;SDS011;26523;52.504;13.498;2023-02-28T15:57:19;4.75;;;1.40;;
40807;SDS011;26523;52.504;13.498;2023-02-28T15:59:56;2.65;;;1.20;;
40807;SDS011;26523;52.504;13.498;2023-02-28T16:07:34;3.05;;;1.50;;
40807;SDS011;26523;52.504;13.498;2023-02-28T16:10:01;4.43;;;1.48;;
40807;SDS011;26523;52.504;13.498;2023-02-28T16:12:27;4.90;;;1.52;;
40807;SDS011;26523;52.504;13.498;2023-02-28T16:14:55;5.88;;;1.23;;
40807;SDS011;26523;52.504;13.498;2023-02-28T16:17:33;4.80;;;1.40;;
40807;SDS011;26523;52.504;13.498;2023-02-28T16:20:05;4.07;;;1.70;;
40807;SDS011;26523;52.504;13.498;2023-02-28T16:22:39;2.53;;;0.90;;
40807;SDS011;26523;52.504;13.498;2023-02-28T16:25:07;5.60;;;1.65;;
40807;SDS011;26523;52.504;13.498;2023-02-28T16:27:42;4.57;;;1.60;;
40807;SDS011;26523;52.504;13.498;2023-02-28T16:32:51;3.60;;;1.63;;
40807;SDS011;26523;52.504;13.498;2023-02-28T16:35:19;6.63;;;2.20;;
40807;SDS011;26523;52.504;13.498;2023-02-28T16:37:45;3.03;;;1.27;;
40807;SDS011;26523;52.504;13.498;2023-02-28T16:40:14;4.95;;;1.65;;
40807;SDS011;26523;52.504;13.498;2023-02-28T16:42:42;4.72;;;1.75;;
40807;SDS011;26523;52.504;13.498;2023-02-28T16:45:22;2.17;;;1.15;;
40807;SDS011;26523;52.504;13.498;2023-02-28T16:47:50;2.53;;;1.20;;
40807;SDS011;26523;52.504;13.498;2023-02-28T16:50:20;3.78;;;2.10;;
40807;SDS011;26523;52.504;13.498;2023-02-28T16:52:47;3.70;;;1.50;;
40807;SDS011;26523;52.504;13.498;2023-02-28T16:55:14;5.72;;;1.40;;
40807;SDS011;26523;52.504;13.498;2023-02-28T16:57:40;3.70;;;1.80;;
40807;SDS011;26523;52.504;13.498;2023-02-28T17:00:07;4.38;;;1.60;;
40807;SDS011;26523;52.504;13.498;2023-02-28T17:02:36;4.85;;;1.88;;
40807;SDS011;26523;52.504;13.498;2023-02-28T17:05:02;4.32;;;1.90;;
40807;SDS011;26523;52.504;13.498;2023-02-28T17:07:28;4.35;;;2.35;;
40807;SDS011;26523;52.504;13.498;2023-02-28T17:09:53;4.90;;;1.98;;
40807;SDS011;26523;52.504;13.498;2023-02-28T17:12:19;4.68;;;2.08;;
40807;SDS011;26523;52.504;13.498;2023-02-28T17:14:45;6.45;;;2.15;;
40807;SDS011;26523;52.504;13.498;2023-02-28T17:17:16;4.05;;;2.15;;
40807;SDS011;26523;52.504;13.498;2023-02-28T17:19:44;4.32;;;1.65;;
40807;SDS011;26523;52.504;13.498;2023-02-28T17:22:10;5.55;;;2.33;;
40807;SDS011;26523;52.504;13.498;2023-02-28T17:24:36;4.25;;;1.63;;